Weaver, Alabama
Current Conditions -  °F | °C
As of 9:53 AM on Thursday 23 Oct 2014 (Local Time) from KANB Reporting Station
Clear Clear  
Wind Chill: 53°   Ceiling: Unl
Heat Index: 53°   Visibility: 10mi
Dew Point: 42°   Wind: 9mph
Humidity: 66%   Direction: 70°ENE
Pressure: 30.17"   Gusts: NA
Location:  33.75°N, 85.81°W
Report Text: KANB 231453Z AUTO 07008KT 10SM CLR 12/06 A3017 RMK AO2 SLP220 T01170056 50004
Loading
Personal Weather Stations






























Interactive Weather Map
Tropical Storm Tracking
New forecast layout! Learn more

10-Day Weather Forecast

Advertisements
Track Severe Weather on mobile